FQCH

Details ICAO FQCH (VPY)
Name CHIMOIO
Region Mozambique
Timezone Africa/Maputo (UTC+2.0)
Plans Departing 2
Arriving 3
Stats Elevation 2,287 ft / 697 m (AMSL)
Location -19.151266° 33.428957°
Runways 1
Magnetic Variation 10.754° W
Sunrise 2018-05-22 04:10:11 UTC / 2018-05-22 06:10:11 Local
Sunset 2018-05-22 15:18:33 UTC / 2018-05-22 17:18:33 Local
Advertisement - Login to hide

Runways

ID Width Length Bearing (true) Bearing (mag) Surface Threshold Offset Overrun Length
01 148 ft / 45 m 7,931 ft / 2,417 m 4.66° 15.41° Asphalt 0 ft / 0 m 0 ft / 0 m
19 148 ft / 45 m 7,931 ft / 2,417 m 184.66° 195.41° Asphalt 0 ft / 0 m 0 ft / 0 m

Map

Weather


0- 5 10 15 20 25 30 35+ Temperature / ° C

Clouds and Precipitation
Forecast for 2018-05-22 18:00 UTC. Updated an hour ago

Ground ~20,000 ft ~40,000 ft Winds

METAR

FQCH 221700Z 14004KT 9999 FEW015 18/17 Q1023

TAF

Not found

Frequencies

Tower 118.40 MHz AFIS
Warning: Do not use this data for real-world aviation or navigation. No guarantee of current accuracy is given.